sensor_id;sensor_type;location;lat;lon;timestamp;temperature;humidity
27848;DHT22;15212;48.830;8.730;2023-04-03T00:01:21;2.70;99.90
27848;DHT22;15212;48.830;8.730;2023-04-03T00:03:50;2.70;99.90
27848;DHT22;15212;48.830;8.730;2023-04-03T00:06:18;2.70;99.90
27848;DHT22;15212;48.830;8.730;2023-04-03T00:08:47;2.70;99.90
27848;DHT22;15212;48.830;8.730;2023-04-03T00:11:15;2.70;99.90
27848;DHT22;15212;48.830;8.730;2023-04-03T00:13:45;2.70;99.90
27848;DHT22;15212;48.830;8.730;2023-04-03T00:16:13;2.60;99.90
27848;DHT22;15212;48.830;8.730;2023-04-03T00:18:42;2.60;99.90
27848;DHT22;15212;48.830;8.730;2023-04-03T00:21:12;2.60;99.90
27848;DHT22;15212;48.830;8.730;2023-04-03T00:23:42;2.60;99.90
27848;DHT22;15212;48.830;8.730;2023-04-03T00:26:10;2.60;99.90
27848;DHT22;15212;48.830;8.730;2023-04-03T00:28:39;2.60;99.90
27848;DHT22;15212;48.830;8.730;2023-04-03T00:31:07;2.60;99.90
27848;DHT22;15212;48.830;8.730;2023-04-03T00:33:36;2.60;99.90
27848;DHT22;15212;48.830;8.730;2023-04-03T00:36:08;2.60;99.90
27848;DHT22;15212;48.830;8.730;2023-04-03T00:38:38;2.60;99.90
27848;DHT22;15212;48.830;8.730;2023-04-03T00:41:07;2.50;99.90
27848;DHT22;15212;48.830;8.730;2023-04-03T00:43:36;2.50;99.90
27848;DHT22;15212;48.830;8.730;2023-04-03T00:46:04;2.50;99.90
27848;DHT22;15212;48.830;8.730;2023-04-03T00:48:36;2.50;99.90
27848;DHT22;15212;48.830;8.730;2023-04-03T00:51:11;2.50;99.90
27848;DHT22;15212;48.830;8.730;2023-04-03T00:53:46;2.50;99.90
27848;DHT22;15212;48.830;8.730;2023-04-03T00:56:19;2.50;99.90
27848;DHT22;15212;48.830;8.730;2023-04-03T00:58:51;2.50;99.90
27848;DHT22;15212;48.830;8.730;2023-04-03T01:01:24;2.40;99.90
27848;DHT22;15212;48.830;8.730;2023-04-03T01:03:54;2.40;99.90
27848;DHT22;15212;48.830;8.730;2023-04-03T01:06:28;2.40;99.90
27848;DHT22;15212;48.830;8.730;2023-04-03T01:08:59;2.40;99.90
27848;DHT22;15212;48.830;8.730;2023-04-03T01:11:28;2.40;99.90
27848;DHT22;15212;48.830;8.730;2023-04-03T01:13:56;2.40;99.90
27848;DHT22;15212;48.830;8.730;2023-04-03T01:16:25;2.40;99.90
27848;DHT22;15212;48.830;8.730;2023-04-03T01:18:54;2.40;99.90
27848;DHT22;15212;48.830;8.730;2023-04-03T01:24:38;2.40;99.90
27848;DHT22;15212;48.830;8.730;2023-04-03T01:27:09;2.30;99.90
27848;DHT22;15212;48.830;8.730;2023-04-03T01:29:38;2.30;99.90
27848;DHT22;15212;48.830;8.730;2023-04-03T01:32:08;2.30;99.90
27848;DHT22;15212;48.830;8.730;2023-04-03T01:34:36;2.30;99.90
27848;DHT22;15212;48.830;8.730;2023-04-03T01:37:04;2.30;99.90
27848;DHT22;15212;48.830;8.730;2023-04-03T01:39:33;2.30;99.90
27848;DHT22;15212;48.830;8.730;2023-04-03T01:42:01;2.30;99.90
27848;DHT22;15212;48.830;8.730;2023-04-03T01:44:30;2.30;99.90
27848;DHT22;15212;48.830;8.730;2023-04-03T01:46:59;2.30;99.90
27848;DHT22;15212;48.830;8.730;2023-04-03T01:49:27;2.30;99.90
27848;DHT22;15212;48.830;8.730;2023-04-03T01:51:55;2.30;99.90
27848;DHT22;15212;48.830;8.730;2023-04-03T01:54:24;2.30;99.90
27848;DHT22;15212;48.830;8.730;2023-04-03T01:56:52;2.30;99.90
27848;DHT22;15212;48.830;8.730;2023-04-03T01:59:21;2.20;99.90
27848;DHT22;15212;48.830;8.730;2023-04-03T02:01:49;2.20;99.90
27848;DHT22;15212;48.830;8.730;2023-04-03T02:04:17;2.20;99.90
27848;DHT22;15212;48.830;8.730;2023-04-03T02:06:46;2.20;99.90
27848;DHT22;15212;48.830;8.730;2023-04-03T02:09:14;2.20;99.90
27848;DHT22;15212;48.830;8.730;2023-04-03T02:11:43;2.30;99.90
27848;DHT22;15212;48.830;8.730;2023-04-03T02:14:11;2.30;99.90
27848;DHT22;15212;48.830;8.730;2023-04-03T02:16:40;2.30;99.90
27848;DHT22;15212;48.830;8.730;2023-04-03T02:19:08;2.30;99.90
27848;DHT22;15212;48.830;8.730;2023-04-03T02:21:36;2.20;99.90
27848;DHT22;15212;48.830;8.730;2023-04-03T02:24:05;2.20;99.90
27848;DHT22;15212;48.830;8.730;2023-04-03T02:26:33;2.30;99.90
27848;DHT22;15212;48.830;8.730;2023-04-03T02:29:02;2.20;99.90
27848;DHT22;15212;48.830;8.730;2023-04-03T02:31:30;2.20;99.90
27848;DHT22;15212;48.830;8.730;2023-04-03T02:33:58;2.20;99.90
27848;DHT22;15212;48.830;8.730;2023-04-03T02:36:27;2.20;99.90
27848;DHT22;15212;48.830;8.730;2023-04-03T02:38:55;2.20;99.90
27848;DHT22;15212;48.830;8.730;2023-04-03T02:41:23;2.10;99.90
27848;DHT22;15212;48.830;8.730;2023-04-03T02:43:53;2.10;99.90
27848;DHT22;15212;48.830;8.730;2023-04-03T02:46:22;2.10;99.90
27848;DHT22;15212;48.830;8.730;2023-04-03T02:48:50;2.10;99.90
27848;DHT22;15212;48.830;8.730;2023-04-03T02:51:19;2.10;99.90
27848;DHT22;15212;48.830;8.730;2023-04-03T02:53:47;2.10;99.90
27848;DHT22;15212;48.830;8.730;2023-04-03T02:56:17;2.00;99.90
27848;DHT22;15212;48.830;8.730;2023-04-03T02:58:46;2.00;99.90
27848;DHT22;15212;48.830;8.730;2023-04-03T03:01:15;2.00;99.90
27848;DHT22;15212;48.830;8.730;2023-04-03T03:03:43;2.00;99.90
27848;DHT22;15212;48.830;8.730;2023-04-03T03:06:14;1.90;99.90
27848;DHT22;15212;48.830;8.730;2023-04-03T03:08:44;1.90;99.90
27848;DHT22;15212;48.830;8.730;2023-04-03T03:11:12;1.90;99.90
27848;DHT22;15212;48.830;8.730;2023-04-03T03:13:41;1.90;99.90
27848;DHT22;15212;48.830;8.730;2023-04-03T03:16:09;1.80;99.90
27848;DHT22;15212;48.830;8.730;2023-04-03T03:18:37;1.90;99.90
27848;DHT22;15212;48.830;8.730;2023-04-03T03:21:06;1.80;99.90
27848;DHT22;15212;48.830;8.730;2023-04-03T03:23:34;1.80;99.90
27848;DHT22;15212;48.830;8.730;2023-04-03T03:26:08;1.80;99.90
27848;DHT22;15212;48.830;8.730;2023-04-03T03:28:38;1.80;99.90
27848;DHT22;15212;48.830;8.730;2023-04-03T03:31:08;1.80;99.90
27848;DHT22;15212;48.830;8.730;2023-04-03T03:33:37;1.80;99.90
27848;DHT22;15212;48.830;8.730;2023-04-03T03:36:05;1.80;99.90
27848;DHT22;15212;48.830;8.730;2023-04-03T03:38:34;1.80;99.90
27848;DHT22;15212;48.830;8.730;2023-04-03T03:41:02;1.80;99.90
27848;DHT22;15212;48.830;8.730;2023-04-03T03:43:31;1.80;99.90
27848;DHT22;15212;48.830;8.730;2023-04-03T03:45:59;1.80;99.90
27848;DHT22;15212;48.830;8.730;2023-04-03T03:48:27;1.90;99.90
27848;DHT22;15212;48.830;8.730;2023-04-03T03:50:56;1.90;99.90
27848;DHT22;15212;48.830;8.730;2023-04-03T03:53:24;1.90;99.90
27848;DHT22;15212;48.830;8.730;2023-04-03T03:55:53;1.90;99.90
27848;DHT22;15212;48.830;8.730;2023-04-03T03:58:21;1.90;99.90
27848;DHT22;15212;48.830;8.730;2023-04-03T04:00:50;1.90;99.90
27848;DHT22;15212;48.830;8.730;2023-04-03T04:03:18;1.90;99.90
27848;DHT22;15212;48.830;8.730;2023-04-03T04:05:47;1.90;99.90
27848;DHT22;15212;48.830;8.730;2023-04-03T04:08:15;1.90;99.90
27848;DHT22;15212;48.830;8.730;2023-04-03T04:10:44;1.90;99.90
27848;DHT22;15212;48.830;8.730;2023-04-03T04:13:12;1.90;99.90
27848;DHT22;15212;48.830;8.730;2023-04-03T04:15:41;2.00;99.90
27848;DHT22;15212;48.830;8.730;2023-04-03T04:18:10;1.90;99.90
27848;DHT22;15212;48.830;8.730;2023-04-03T04:20:39;1.90;99.90
27848;DHT22;15212;48.830;8.730;2023-04-03T04:23:07;2.00;99.90
27848;DHT22;15212;48.830;8.730;2023-04-03T04:25:35;2.00;99.90
27848;DHT22;15212;48.830;8.730;2023-04-03T04:28:04;1.90;99.90
27848;DHT22;15212;48.830;8.730;2023-04-03T04:30:32;1.90;99.90
27848;DHT22;15212;48.830;8.730;2023-04-03T04:33:01;1.90;99.90
27848;DHT22;15212;48.830;8.730;2023-04-03T04:35:29;1.90;99.90
27848;DHT22;15212;48.830;8.730;2023-04-03T04:37:57;1.90;99.90
27848;DHT22;15212;48.830;8.730;2023-04-03T04:40:26;2.00;99.90
27848;DHT22;15212;48.830;8.730;2023-04-03T04:42:55;2.00;99.90
27848;DHT22;15212;48.830;8.730;2023-04-03T04:45:24;2.00;99.90
27848;DHT22;15212;48.830;8.730;2023-04-03T04:47:54;2.00;99.90
27848;DHT22;15212;48.830;8.730;2023-04-03T04:50:24;2.00;99.90
27848;DHT22;15212;48.830;8.730;2023-04-03T04:52:53;2.00;99.90
27848;DHT22;15212;48.830;8.730;2023-04-03T04:55:21;2.00;99.90
27848;DHT22;15212;48.830;8.730;2023-04-03T04:57:50;2.00;99.90
27848;DHT22;15212;48.830;8.730;2023-04-03T05:00:18;2.00;99.90
27848;DHT22;15212;48.830;8.730;2023-04-03T05:02:47;2.00;99.90
27848;DHT22;15212;48.830;8.730;2023-04-03T05:05:15;2.00;99.90
27848;DHT22;15212;48.830;8.730;2023-04-03T05:07:44;2.00;99.90
27848;DHT22;15212;48.830;8.730;2023-04-03T05:10:12;2.00;99.90
27848;DHT22;15212;48.830;8.730;2023-04-03T05:12:40;2.00;99.90
27848;DHT22;15212;48.830;8.730;2023-04-03T05:15:28;2.00;99.90
27848;DHT22;15212;48.830;8.730;2023-04-03T05:17:56;2.00;99.90
27848;DHT22;15212;48.830;8.730;2023-04-03T05:20:25;2.00;99.90
27848;DHT22;15212;48.830;8.730;2023-04-03T05:22:53;2.00;99.90
27848;DHT22;15212;48.830;8.730;2023-04-03T05:25:21;2.00;99.90
27848;DHT22;15212;48.830;8.730;2023-04-03T05:27:50;2.00;99.90
27848;DHT22;15212;48.830;8.730;2023-04-03T05:30:19;2.00;99.90
27848;DHT22;15212;48.830;8.730;2023-04-03T05:32:47;2.00;99.90
27848;DHT22;15212;48.830;8.730;2023-04-03T05:35:15;2.00;99.90
27848;DHT22;15212;48.830;8.730;2023-04-03T05:37:44;2.10;99.90
27848;DHT22;15212;48.830;8.730;2023-04-03T05:40:12;2.10;99.90
27848;DHT22;15212;48.830;8.730;2023-04-03T05:42:41;2.10;99.90
27848;DHT22;15212;48.830;8.730;2023-04-03T05:45:09;2.20;99.90
27848;DHT22;15212;48.830;8.730;2023-04-03T05:47:38;2.20;99.90
27848;DHT22;15212;48.830;8.730;2023-04-03T05:50:06;2.20;99.90
27848;DHT22;15212;48.830;8.730;2023-04-03T05:52:40;2.30;99.90
27848;DHT22;15212;48.830;8.730;2023-04-03T05:55:10;2.30;99.90
27848;DHT22;15212;48.830;8.730;2023-04-03T05:57:38;2.30;99.90
27848;DHT22;15212;48.830;8.730;2023-04-03T06:00:10;2.30;99.90
27848;DHT22;15212;48.830;8.730;2023-04-03T06:02:41;2.20;99.90
27848;DHT22;15212;48.830;8.730;2023-04-03T06:05:09;2.20;99.90
27848;DHT22;15212;48.830;8.730;2023-04-03T06:07:39;2.30;99.90
27848;DHT22;15212;48.830;8.730;2023-04-03T06:10:08;2.30;99.90
27848;DHT22;15212;48.830;8.730;2023-04-03T06:12:37;2.20;99.90
27848;DHT22;15212;48.830;8.730;2023-04-03T06:15:07;2.30;99.90
27848;DHT22;15212;48.830;8.730;2023-04-03T06:17:37;2.30;99.90
27848;DHT22;15212;48.830;8.730;2023-04-03T06:20:06;2.40;99.90
27848;DHT22;15212;48.830;8.730;2023-04-03T06:22:35;2.50;99.90
27848;DHT22;15212;48.830;8.730;2023-04-03T06:25:04;2.60;99.90
27848;DHT22;15212;48.830;8.730;2023-04-03T06:27:33;2.70;99.90
27848;DHT22;15212;48.830;8.730;2023-04-03T06:30:01;2.70;99.90
27848;DHT22;15212;48.830;8.730;2023-04-03T06:32:30;2.70;99.90
27848;DHT22;15212;48.830;8.730;2023-04-03T06:34:58;2.80;99.90
27848;DHT22;15212;48.830;8.730;2023-04-03T06:37:27;2.90;99.90
27848;DHT22;15212;48.830;8.730;2023-04-03T06:39:57;3.00;99.90
27848;DHT22;15212;48.830;8.730;2023-04-03T06:42:27;3.00;99.90
27848;DHT22;15212;48.830;8.730;2023-04-03T06:44:55;3.10;99.90
27848;DHT22;15212;48.830;8.730;2023-04-03T06:47:23;3.10;99.90
27848;DHT22;15212;48.830;8.730;2023-04-03T06:49:52;3.10;99.90
27848;DHT22;15212;48.830;8.730;2023-04-03T06:52:20;3.10;99.90
27848;DHT22;15212;48.830;8.730;2023-04-03T06:54:49;3.00;99.90
27848;DHT22;15212;48.830;8.730;2023-04-03T06:57:19;3.10;99.90
27848;DHT22;15212;48.830;8.730;2023-04-03T06:59:47;3.00;99.90
27848;DHT22;15212;48.830;8.730;2023-04-03T07:02:16;3.00;99.90
27848;DHT22;15212;48.830;8.730;2023-04-03T07:04:45;3.10;99.90
27848;DHT22;15212;48.830;8.730;2023-04-03T07:07:13;3.00;99.90
27848;DHT22;15212;48.830;8.730;2023-04-03T07:09:43;3.20;99.90
27848;DHT22;15212;48.830;8.730;2023-04-03T07:12:14;3.10;99.90
27848;DHT22;15212;48.830;8.730;2023-04-03T07:14:42;3.20;99.90
27848;DHT22;15212;48.830;8.730;2023-04-03T07:17:10;3.30;99.90
27848;DHT22;15212;48.830;8.730;2023-04-03T07:19:39;3.30;99.90
27848;DHT22;15212;48.830;8.730;2023-04-03T07:22:07;3.30;99.90
27848;DHT22;15212;48.830;8.730;2023-04-03T07:24:37;3.20;99.90
27848;DHT22;15212;48.830;8.730;2023-04-03T07:27:06;3.30;99.90
27848;DHT22;15212;48.830;8.730;2023-04-03T07:29:35;3.30;99.90
27848;DHT22;15212;48.830;8.730;2023-04-03T07:32:04;3.30;99.90
27848;DHT22;15212;48.830;8.730;2023-04-03T07:34:33;3.30;99.90
27848;DHT22;15212;48.830;8.730;2023-04-03T07:37:02;3.50;99.90
27848;DHT22;15212;48.830;8.730;2023-04-03T07:39:31;3.70;99.90
27848;DHT22;15212;48.830;8.730;2023-04-03T07:42:00;3.80;99.90
27848;DHT22;15212;48.830;8.730;2023-04-03T07:44:28;3.90;99.90
27848;DHT22;15212;48.830;8.730;2023-04-03T07:46:57;4.00;99.90
27848;DHT22;15212;48.830;8.730;2023-04-03T07:49:26;4.00;99.90
27848;DHT22;15212;48.830;8.730;2023-04-03T07:51:55;4.10;99.90
27848;DHT22;15212;48.830;8.730;2023-04-03T07:54:23;4.10;99.90
27848;DHT22;15212;48.830;8.730;2023-04-03T07:56:52;4.10;99.90
27848;DHT22;15212;48.830;8.730;2023-04-03T07:59:20;4.10;99.90
27848;DHT22;15212;48.830;8.730;2023-04-03T08:01:48;4.20;99.90
27848;DHT22;15212;48.830;8.730;2023-04-03T08:04:17;4.30;99.90
27848;DHT22;15212;48.830;8.730;2023-04-03T08:06:45;4.40;99.90
27848;DHT22;15212;48.830;8.730;2023-04-03T08:09:15;4.50;99.90
27848;DHT22;15212;48.830;8.730;2023-04-03T08:11:43;4.50;99.90
27848;DHT22;15212;48.830;8.730;2023-04-03T08:14:13;4.40;99.90
27848;DHT22;15212;48.830;8.730;2023-04-03T08:16:46;4.50;99.90
27848;DHT22;15212;48.830;8.730;2023-04-03T08:19:16;4.50;99.90
27848;DHT22;15212;48.830;8.730;2023-04-03T08:21:44;4.20;99.90
27848;DHT22;15212;48.830;8.730;2023-04-03T08:24:13;4.10;99.90
27848;DHT22;15212;48.830;8.730;2023-04-03T08:26:41;4.10;99.90
27848;DHT22;15212;48.830;8.730;2023-04-03T08:29:10;4.00;99.90
27848;DHT22;15212;48.830;8.730;2023-04-03T08:31:38;4.10;99.90
27848;DHT22;15212;48.830;8.730;2023-04-03T08:34:06;4.30;99.90
27848;DHT22;15212;48.830;8.730;2023-04-03T08:36:35;4.60;99.90
27848;DHT22;15212;48.830;8.730;2023-04-03T08:39:03;4.90;99.90
27848;DHT22;15212;48.830;8.730;2023-04-03T08:41:37;5.00;99.90
27848;DHT22;15212;48.830;8.730;2023-04-03T08:47:38;5.20;99.90
27848;DHT22;15212;48.830;8.730;2023-04-03T08:50:15;5.20;99.90
27848;DHT22;15212;48.830;8.730;2023-04-03T08:52:51;5.00;99.90
27848;DHT22;15212;48.830;8.730;2023-04-03T08:55:28;4.90;99.90
27848;DHT22;15212;48.830;8.730;2023-04-03T08:58:12;4.70;99.90
27848;DHT22;15212;48.830;8.730;2023-04-03T09:00:49;4.80;99.90
27848;DHT22;15212;48.830;8.730;2023-04-03T09:03:39;4.70;99.90
27848;DHT22;15212;48.830;8.730;2023-04-03T09:12:00;4.60;99.90
27848;DHT22;15212;48.830;8.730;2023-04-03T09:14:48;4.60;99.90
27848;DHT22;15212;48.830;8.730;2023-04-03T09:23:33;4.80;99.90
27848;DHT22;15212;48.830;8.730;2023-04-03T09:26:06;4.90;99.90
27848;DHT22;15212;48.830;8.730;2023-04-03T09:28:38;4.70;99.90
27848;DHT22;15212;48.830;8.730;2023-04-03T09:31:23;4.80;99.90
27848;DHT22;15212;48.830;8.730;2023-04-03T09:34:19;4.70;99.90
27848;DHT22;15212;48.830;8.730;2023-04-03T09:36:50;4.80;99.90
27848;DHT22;15212;48.830;8.730;2023-04-03T09:39:22;5.00;99.90
27848;DHT22;15212;48.830;8.730;2023-04-03T09:42:02;5.10;99.90
27848;DHT22;15212;48.830;8.730;2023-04-03T09:44:37;5.10;99.90
27848;DHT22;15212;48.830;8.730;2023-04-03T09:47:24;5.10;99.90
27848;DHT22;15212;48.830;8.730;2023-04-03T09:50:20;5.20;99.90
27848;DHT22;15212;48.830;8.730;2023-04-03T09:52:51;5.00;99.90
27848;DHT22;15212;48.830;8.730;2023-04-03T09:55:25;5.00;99.90
27848;DHT22;15212;48.830;8.730;2023-04-03T09:58:04;5.00;99.90
27848;DHT22;15212;48.830;8.730;2023-04-03T10:00:37;4.80;99.90
27848;DHT22;15212;48.830;8.730;2023-04-03T10:03:20;5.00;99.90
27848;DHT22;15212;48.830;8.730;2023-04-03T10:05:54;5.10;99.90
27848;DHT22;15212;48.830;8.730;2023-04-03T10:08:32;5.00;99.90
27848;DHT22;15212;48.830;8.730;2023-04-03T10:11:15;5.00;99.90
27848;DHT22;15212;48.830;8.730;2023-04-03T10:13:51;5.10;99.90
27848;DHT22;15212;48.830;8.730;2023-04-03T10:16:32;5.00;99.90
27848;DHT22;15212;48.830;8.730;2023-04-03T10:19:31;5.00;99.90
27848;DHT22;15212;48.830;8.730;2023-04-03T10:22:03;4.90;99.90
27848;DHT22;15212;48.830;8.730;2023-04-03T10:24:59;4.70;99.90
27848;DHT22;15212;48.830;8.730;2023-04-03T10:30:29;4.80;99.90
27848;DHT22;15212;48.830;8.730;2023-04-03T10:36:29;5.10;99.90
27848;DHT22;15212;48.830;8.730;2023-04-03T10:39:26;5.30;99.90
27848;DHT22;15212;48.830;8.730;2023-04-03T10:42:25;5.30;99.90
27848;DHT22;15212;48.830;8.730;2023-04-03T10:45:21;5.20;99.90
27848;DHT22;15212;48.830;8.730;2023-04-03T10:48:11;5.00;99.90
27848;DHT22;15212;48.830;8.730;2023-04-03T10:56:34;4.70;99.90
27848;DHT22;15212;48.830;8.730;2023-04-03T11:02:25;4.60;99.90
27848;DHT22;15212;48.830;8.730;2023-04-03T11:05:54;4.60;99.90
27848;DHT22;15212;48.830;8.730;2023-04-03T11:07:59;4.50;99.90
27848;DHT22;15212;48.830;8.730;2023-04-03T11:10:42;4.70;99.90
27848;DHT22;15212;48.830;8.730;2023-04-03T11:13:21;4.80;99.90
27848;DHT22;15212;48.830;8.730;2023-04-03T11:15:53;4.80;99.90
27848;DHT22;15212;48.830;8.730;2023-04-03T11:18:28;4.70;99.90
27848;DHT22;15212;48.830;8.730;2023-04-03T11:21:19;4.80;99.90
27848;DHT22;15212;48.830;8.730;2023-04-03T11:23:50;4.80;99.90
27848;DHT22;15212;48.830;8.730;2023-04-03T11:26:22;4.80;99.90
27848;DHT22;15212;48.830;8.730;2023-04-03T11:28:58;5.00;99.90
27848;DHT22;15212;48.830;8.730;2023-04-03T11:31:41;5.00;99.90
27848;DHT22;15212;48.830;8.730;2023-04-03T11:34:34;5.10;99.90
27848;DHT22;15212;48.830;8.730;2023-04-03T11:46:02;5.40;99.90
27848;DHT22;15212;48.830;8.730;2023-04-03T11:53:47;5.30;99.90
27848;DHT22;15212;48.830;8.730;2023-04-03T11:56:27;5.30;99.90
27848;DHT22;15212;48.830;8.730;2023-04-03T12:01:48;5.30;99.90
27848;DHT22;15212;48.830;8.730;2023-04-03T12:04:23;5.40;99.90
27848;DHT22;15212;48.830;8.730;2023-04-03T12:07:08;5.40;99.90
27848;DHT22;15212;48.830;8.730;2023-04-03T12:12:28;5.20;99.90
27848;DHT22;15212;48.830;8.730;2023-04-03T12:15:23;5.20;99.90
27848;DHT22;15212;48.830;8.730;2023-04-03T12:17:53;5.20;99.90
27848;DHT22;15212;48.830;8.730;2023-04-03T12:23:27;5.40;99.90
27848;DHT22;15212;48.830;8.730;2023-04-03T12:26:25;5.60;99.90
27848;DHT22;15212;48.830;8.730;2023-04-03T12:28:52;5.70;99.90
27848;DHT22;15212;48.830;8.730;2023-04-03T12:31:24;5.80;99.90
27848;DHT22;15212;48.830;8.730;2023-04-03T12:36:42;5.70;99.90
27848;DHT22;15212;48.830;8.730;2023-04-03T12:39:39;5.70;99.90
27848;DHT22;15212;48.830;8.730;2023-04-03T12:45:22;5.70;99.90
27848;DHT22;15212;48.830;8.730;2023-04-03T12:47:55;5.70;99.90
27848;DHT22;15212;48.830;8.730;2023-04-03T12:50:29;5.80;99.90
27848;DHT22;15212;48.830;8.730;2023-04-03T12:55:59;6.10;99.90
27848;DHT22;15212;48.830;8.730;2023-04-03T12:58:29;6.20;99.90
27848;DHT22;15212;48.830;8.730;2023-04-03T13:01:12;6.00;99.90
27848;DHT22;15212;48.830;8.730;2023-04-03T13:03:45;5.70;99.90
27848;DHT22;15212;48.830;8.730;2023-04-03T13:06:27;5.60;99.90
27848;DHT22;15212;48.830;8.730;2023-04-03T13:09:00;5.50;99.90
27848;DHT22;15212;48.830;8.730;2023-04-03T13:11:36;5.50;99.90
27848;DHT22;15212;48.830;8.730;2023-04-03T13:14:15;5.40;99.90
27848;DHT22;15212;48.830;8.730;2023-04-03T13:16:59;5.30;99.90
27848;DHT22;15212;48.830;8.730;2023-04-03T13:19:32;5.30;99.90
27848;DHT22;15212;48.830;8.730;2023-04-03T13:22:15;5.40;99.90
27848;DHT22;15212;48.830;8.730;2023-04-03T13:24:36;5.60;99.90
27848;DHT22;15212;48.830;8.730;2023-04-03T13:27:06;5.70;99.90
27848;DHT22;15212;48.830;8.730;2023-04-03T13:29:38;5.70;99.90
27848;DHT22;15212;48.830;8.730;2023-04-03T13:32:07;5.50;99.90
27848;DHT22;15212;48.830;8.730;2023-04-03T13:34:42;5.40;99.90
27848;DHT22;15212;48.830;8.730;2023-04-03T13:37:23;5.20;99.90
27848;DHT22;15212;48.830;8.730;2023-04-03T13:42:41;5.10;99.90
27848;DHT22;15212;48.830;8.730;2023-04-03T13:45:27;5.10;99.90
27848;DHT22;15212;48.830;8.730;2023-04-03T13:48:17;5.00;99.90
27848;DHT22;15212;48.830;8.730;2023-04-03T13:50:58;5.20;99.90
27848;DHT22;15212;48.830;8.730;2023-04-03T13:53:29;5.40;99.90
27848;DHT22;15212;48.830;8.730;2023-04-03T13:58:35;5.60;99.90
27848;DHT22;15212;48.830;8.730;2023-04-03T14:01:19;5.70;99.90
27848;DHT22;15212;48.830;8.730;2023-04-03T14:04:10;5.80;99.90
27848;DHT22;15212;48.830;8.730;2023-04-03T14:06:33;5.70;99.90
27848;DHT22;15212;48.830;8.730;2023-04-03T14:09:01;5.70;99.90
27848;DHT22;15212;48.830;8.730;2023-04-03T14:11:30;5.80;99.90
27848;DHT22;15212;48.830;8.730;2023-04-03T14:14:01;5.80;99.90
27848;DHT22;15212;48.830;8.730;2023-04-03T14:16:38;5.80;99.90
27848;DHT22;15212;48.830;8.730;2023-04-03T14:19:05;5.80;99.90
27848;DHT22;15212;48.830;8.730;2023-04-03T14:21:34;5.80;99.90
27848;DHT22;15212;48.830;8.730;2023-04-03T14:24:02;5.80;99.90
27848;DHT22;15212;48.830;8.730;2023-04-03T14:26:31;5.70;99.90
27848;DHT22;15212;48.830;8.730;2023-04-03T14:28:59;5.60;99.90
27848;DHT22;15212;48.830;8.730;2023-04-03T14:31:28;5.60;99.90
27848;DHT22;15212;48.830;8.730;2023-04-03T14:33:57;5.50;99.90
27848;DHT22;15212;48.830;8.730;2023-04-03T14:36:27;5.40;99.90
27848;DHT22;15212;48.830;8.730;2023-04-03T14:38:57;5.40;99.90
27848;DHT22;15212;48.830;8.730;2023-04-03T14:41:27;5.40;99.90
27848;DHT22;15212;48.830;8.730;2023-04-03T14:43:56;5.50;99.90
27848;DHT22;15212;48.830;8.730;2023-04-03T14:46:33;5.60;99.90
27848;DHT22;15212;48.830;8.730;2023-04-03T14:49:25;5.60;99.90
27848;DHT22;15212;48.830;8.730;2023-04-03T14:51:57;5.50;99.90
27848;DHT22;15212;48.830;8.730;2023-04-03T14:54:26;5.40;99.90
27848;DHT22;15212;48.830;8.730;2023-04-03T14:56:58;5.30;99.90
27848;DHT22;15212;48.830;8.730;2023-04-03T14:59:28;5.40;99.90
27848;DHT22;15212;48.830;8.730;2023-04-03T15:01:57;5.50;99.90
27848;DHT22;15212;48.830;8.730;2023-04-03T15:04:25;5.50;99.90
27848;DHT22;15212;48.830;8.730;2023-04-03T15:06:54;5.40;99.90
27848;DHT22;15212;48.830;8.730;2023-04-03T15:09:27;5.30;99.90
27848;DHT22;15212;48.830;8.730;2023-04-03T15:11:55;5.30;99.90
27848;DHT22;15212;48.830;8.730;2023-04-03T15:14:24;5.20;99.90
27848;DHT22;15212;48.830;8.730;2023-04-03T15:16:52;5.20;99.90
27848;DHT22;15212;48.830;8.730;2023-04-03T15:19:21;5.30;99.90
27848;DHT22;15212;48.830;8.730;2023-04-03T15:21:50;5.40;99.90
27848;DHT22;15212;48.830;8.730;2023-04-03T15:24:19;5.50;99.90
27848;DHT22;15212;48.830;8.730;2023-04-03T15:26:47;5.40;99.90
27848;DHT22;15212;48.830;8.730;2023-04-03T15:29:15;5.40;99.90
27848;DHT22;15212;48.830;8.730;2023-04-03T15:31:44;5.30;99.90
27848;DHT22;15212;48.830;8.730;2023-04-03T15:34:12;5.30;99.90
27848;DHT22;15212;48.830;8.730;2023-04-03T15:36:40;5.40;99.90
27848;DHT22;15212;48.830;8.730;2023-04-03T15:39:09;5.50;99.90
27848;DHT22;15212;48.830;8.730;2023-04-03T15:41:37;5.50;99.90
27848;DHT22;15212;48.830;8.730;2023-04-03T15:44:06;5.50;99.90
27848;DHT22;15212;48.830;8.730;2023-04-03T15:46:34;5.50;99.90
27848;DHT22;15212;48.830;8.730;2023-04-03T15:49:04;5.50;99.90
27848;DHT22;15212;48.830;8.730;2023-04-03T15:51:32;5.50;99.90
27848;DHT22;15212;48.830;8.730;2023-04-03T15:54:01;5.40;99.90
27848;DHT22;15212;48.830;8.730;2023-04-03T15:56:29;5.40;99.90
27848;DHT22;15212;48.830;8.730;2023-04-03T15:58:57;5.60;99.90
27848;DHT22;15212;48.830;8.730;2023-04-03T16:01:26;5.60;99.90
27848;DHT22;15212;48.830;8.730;2023-04-03T16:03:54;5.60;99.90
27848;DHT22;15212;48.830;8.730;2023-04-03T16:06:24;5.50;99.90
27848;DHT22;15212;48.830;8.730;2023-04-03T16:08:54;5.40;99.90
27848;DHT22;15212;48.830;8.730;2023-04-03T16:11:25;5.30;99.90
27848;DHT22;15212;48.830;8.730;2023-04-03T16:13:54;5.20;99.90
27848;DHT22;15212;48.830;8.730;2023-04-03T16:16:24;5.20;99.90
27848;DHT22;15212;48.830;8.730;2023-04-03T16:18:54;5.20;99.90
27848;DHT22;15212;48.830;8.730;2023-04-03T16:21:24;5.20;99.90
27848;DHT22;15212;48.830;8.730;2023-04-03T16:23:52;5.10;99.90
27848;DHT22;15212;48.830;8.730;2023-04-03T16:26:21;5.10;99.90
27848;DHT22;15212;48.830;8.730;2023-04-03T16:28:49;5.20;99.90
27848;DHT22;15212;48.830;8.730;2023-04-03T16:31:17;5.20;99.90
27848;DHT22;15212;48.830;8.730;2023-04-03T16:33:46;5.20;99.90
27848;DHT22;15212;48.830;8.730;2023-04-03T16:36:14;5.30;99.90
27848;DHT22;15212;48.830;8.730;2023-04-03T16:38:43;5.30;99.90
27848;DHT22;15212;48.830;8.730;2023-04-03T16:41:11;5.30;99.90
27848;DHT22;15212;48.830;8.730;2023-04-03T16:43:40;5.30;99.90
27848;DHT22;15212;48.830;8.730;2023-04-03T16:46:08;5.40;99.90
27848;DHT22;15212;48.830;8.730;2023-04-03T16:48:36;5.30;99.90
27848;DHT22;15212;48.830;8.730;2023-04-03T16:51:05;5.20;99.90
27848;DHT22;15212;48.830;8.730;2023-04-03T16:53:33;5.20;99.90
27848;DHT22;15212;48.830;8.730;2023-04-03T16:56:02;5.10;99.90
27848;DHT22;15212;48.830;8.730;2023-04-03T16:58:30;5.00;99.90
27848;DHT22;15212;48.830;8.730;2023-04-03T17:01:07;5.00;99.90
27848;DHT22;15212;48.830;8.730;2023-04-03T17:03:42;4.90;99.90
27848;DHT22;15212;48.830;8.730;2023-04-03T17:06:12;4.90;99.90
27848;DHT22;15212;48.830;8.730;2023-04-03T17:08:51;4.80;99.90
27848;DHT22;15212;48.830;8.730;2023-04-03T17:11:19;4.80;99.90
27848;DHT22;15212;48.830;8.730;2023-04-03T17:13:47;4.80;99.90
27848;DHT22;15212;48.830;8.730;2023-04-03T17:16:16;4.80;99.90
27848;DHT22;15212;48.830;8.730;2023-04-03T17:18:45;4.70;99.90
27848;DHT22;15212;48.830;8.730;2023-04-03T17:21:15;4.70;99.90
27848;DHT22;15212;48.830;8.730;2023-04-03T17:23:49;4.70;99.90